sensor_id;sensor_type;location;lat;lon;timestamp;pressure;altitude;pressure_sealevel;temperature;humidity
47985;BME280;33753;52.912;-7.342;2023-06-14T00:02:13;100355.03;;;13.55;100.00
47985;BME280;33753;52.912;-7.342;2023-06-14T00:04:43;100357.09;;;13.53;100.00
47985;BME280;33753;52.912;-7.342;2023-06-14T00:07:14;100357.56;;;13.56;100.00
47985;BME280;33753;52.912;-7.342;2023-06-14T00:09:43;100360.53;;;13.61;100.00
47985;BME280;33753;52.912;-7.342;2023-06-14T00:12:12;100354.69;;;13.64;100.00
47985;BME280;33753;52.912;-7.342;2023-06-14T00:14:40;100354.31;;;13.68;100.00
47985;BME280;33753;52.912;-7.342;2023-06-14T00:17:10;100355.78;;;13.70;100.00
47985;BME280;33753;52.912;-7.342;2023-06-14T00:19:39;100353.53;;;13.74;100.00
47985;BME280;33753;52.912;-7.342;2023-06-14T00:22:08;100349.41;;;13.78;100.00
47985;BME280;33753;52.912;-7.342;2023-06-14T00:24:37;100349.63;;;13.83;100.00
47985;BME280;33753;52.912;-7.342;2023-06-14T00:27:06;100349.50;;;13.91;100.00
47985;BME280;33753;52.912;-7.342;2023-06-14T00:29:34;100351.44;;;13.97;100.00
47985;BME280;33753;52.912;-7.342;2023-06-14T00:32:03;100355.06;;;14.05;100.00
47985;BME280;33753;52.912;-7.342;2023-06-14T00:34:33;100350.88;;;14.09;100.00
47985;BME280;33753;52.912;-7.342;2023-06-14T00:37:02;100354.91;;;14.13;100.00
47985;BME280;33753;52.912;-7.342;2023-06-14T00:39:31;100347.25;;;14.23;100.00
47985;BME280;33753;52.912;-7.342;2023-06-14T00:42:00;100351.91;;;14.29;100.00
47985;BME280;33753;52.912;-7.342;2023-06-14T00:44:28;100345.66;;;14.35;100.00
47985;BME280;33753;52.912;-7.342;2023-06-14T00:46:57;100348.63;;;14.41;100.00
47985;BME280;33753;52.912;-7.342;2023-06-14T00:49:25;100342.38;;;14.47;100.00
47985;BME280;33753;52.912;-7.342;2023-06-14T00:51:56;100354.34;;;14.52;100.00
47985;BME280;33753;52.912;-7.342;2023-06-14T00:54:24;100341.19;;;14.56;100.00
47985;BME280;33753;52.912;-7.342;2023-06-14T00:56:53;100348.75;;;14.61;100.00
47985;BME280;33753;52.912;-7.342;2023-06-14T00:59:23;100344.59;;;14.65;100.00
47985;BME280;33753;52.912;-7.342;2023-06-14T01:01:51;100350.47;;;14.68;100.00
47985;BME280;33753;52.912;-7.342;2023-06-14T01:04:20;100350.69;;;14.67;100.00
47985;BME280;33753;52.912;-7.342;2023-06-14T01:06:49;100352.16;;;14.69;100.00
47985;BME280;33753;52.912;-7.342;2023-06-14T01:09:32;100350.47;;;14.68;100.00
47985;BME280;33753;52.912;-7.342;2023-06-14T01:12:07;100352.56;;;14.66;100.00
47985;BME280;33753;52.912;-7.342;2023-06-14T01:14:39;100356.97;;;14.67;100.00
47985;BME280;33753;52.912;-7.342;2023-06-14T01:17:08;100355.00;;;14.61;100.00
47985;BME280;33753;52.912;-7.342;2023-06-14T01:19:42;100354.84;;;14.63;100.00
47985;BME280;33753;52.912;-7.342;2023-06-14T01:22:13;100346.63;;;14.56;100.00
47985;BME280;33753;52.912;-7.342;2023-06-14T01:24:43;100346.56;;;14.49;100.00
47985;BME280;33753;52.912;-7.342;2023-06-14T01:27:13;100350.06;;;14.37;100.00
47985;BME280;33753;52.912;-7.342;2023-06-14T01:29:42;100349.81;;;14.31;100.00
47985;BME280;33753;52.912;-7.342;2023-06-14T01:32:14;100347.47;;;14.28;100.00
47985;BME280;33753;52.912;-7.342;2023-06-14T01:34:45;100350.81;;;14.24;100.00
47985;BME280;33753;52.912;-7.342;2023-06-14T01:37:13;100356.16;;;14.10;100.00
47985;BME280;33753;52.912;-7.342;2023-06-14T01:39:44;100347.94;;;14.04;100.00
47985;BME280;33753;52.912;-7.342;2023-06-14T01:42:13;100349.09;;;13.94;100.00
47985;BME280;33753;52.912;-7.342;2023-06-14T01:44:42;100344.84;;;13.85;100.00
47985;BME280;33753;52.912;-7.342;2023-06-14T01:47:12;100350.44;;;13.77;100.00
47985;BME280;33753;52.912;-7.342;2023-06-14T01:49:40;100348.31;;;13.72;100.00
47985;BME280;33753;52.912;-7.342;2023-06-14T01:52:09;100349.31;;;13.71;100.00
47985;BME280;33753;52.912;-7.342;2023-06-14T01:54:37;100336.72;;;13.63;100.00
47985;BME280;33753;52.912;-7.342;2023-06-14T01:57:11;100345.81;;;13.56;100.00
47985;BME280;33753;52.912;-7.342;2023-06-14T01:59:39;100343.31;;;13.54;100.00
47985;BME280;33753;52.912;-7.342;2023-06-14T02:02:08;100342.69;;;13.52;100.00
47985;BME280;33753;52.912;-7.342;2023-06-14T02:04:36;100343.69;;;13.51;100.00
47985;BME280;33753;52.912;-7.342;2023-06-14T02:07:05;100345.78;;;13.49;100.00
47985;BME280;33753;52.912;-7.342;2023-06-14T02:09:34;100343.81;;;13.43;100.00
47985;BME280;33753;52.912;-7.342;2023-06-14T02:12:02;100342.91;;;13.36;100.00
47985;BME280;33753;52.912;-7.342;2023-06-14T02:14:33;100353.50;;;13.30;100.00
47985;BME280;33753;52.912;-7.342;2023-06-14T02:17:02;100344.53;;;13.15;100.00
47985;BME280;33753;52.912;-7.342;2023-06-14T02:19:30;100345.31;;;13.09;100.00
47985;BME280;33753;52.912;-7.342;2023-06-14T02:21:59;100342.31;;;13.04;100.00
47985;BME280;33753;52.912;-7.342;2023-06-14T02:24:28;100338.94;;;13.02;100.00
47985;BME280;33753;52.912;-7.342;2023-06-14T02:26:58;100340.81;;;13.01;100.00
47985;BME280;33753;52.912;-7.342;2023-06-14T02:29:27;100339.72;;;12.95;100.00
47985;BME280;33753;52.912;-7.342;2023-06-14T02:31:56;100341.03;;;13.00;100.00
47985;BME280;33753;52.912;-7.342;2023-06-14T02:34:25;100341.41;;;12.96;100.00
47985;BME280;33753;52.912;-7.342;2023-06-14T02:36:54;100341.13;;;12.91;100.00
47985;BME280;33753;52.912;-7.342;2023-06-14T02:39:22;100335.78;;;12.83;100.00
47985;BME280;33753;52.912;-7.342;2023-06-14T02:41:51;100345.63;;;12.84;100.00
47985;BME280;33753;52.912;-7.342;2023-06-14T02:44:23;100341.22;;;12.83;100.00
47985;BME280;33753;52.912;-7.342;2023-06-14T02:46:52;100337.47;;;12.84;100.00
47985;BME280;33753;52.912;-7.342;2023-06-14T02:49:22;100344.59;;;12.85;100.00
47985;BME280;33753;52.912;-7.342;2023-06-14T02:51:51;100336.66;;;12.84;100.00
47985;BME280;33753;52.912;-7.342;2023-06-14T02:54:20;100345.00;;;12.82;100.00
47985;BME280;33753;52.912;-7.342;2023-06-14T02:56:49;100338.50;;;12.83;100.00
47985;BME280;33753;52.912;-7.342;2023-06-14T02:59:18;100332.44;;;12.81;100.00
47985;BME280;33753;52.912;-7.342;2023-06-14T03:01:48;100331.81;;;12.79;100.00
47985;BME280;33753;52.912;-7.342;2023-06-14T03:04:17;100338.25;;;12.78;100.00
47985;BME280;33753;52.912;-7.342;2023-06-14T03:06:47;100331.50;;;12.74;100.00
47985;BME280;33753;52.912;-7.342;2023-06-14T03:09:19;100331.50;;;12.74;100.00
47985;BME280;33753;52.912;-7.342;2023-06-14T03:11:48;100328.31;;;12.70;100.00
47985;BME280;33753;52.912;-7.342;2023-06-14T03:14:16;100326.19;;;12.66;100.00
47985;BME280;33753;52.912;-7.342;2023-06-14T03:16:46;100329.94;;;12.65;100.00
47985;BME280;33753;52.912;-7.342;2023-06-14T03:19:18;100335.47;;;12.56;100.00
47985;BME280;33753;52.912;-7.342;2023-06-14T03:21:49;100326.28;;;12.57;100.00
47985;BME280;33753;52.912;-7.342;2023-06-14T03:24:17;100331.34;;;12.60;100.00
47985;BME280;33753;52.912;-7.342;2023-06-14T03:26:46;100318.41;;;12.62;100.00
47985;BME280;33753;52.912;-7.342;2023-06-14T03:29:15;100326.19;;;12.66;100.00
47985;BME280;33753;52.912;-7.342;2023-06-14T03:31:56;100323.84;;;12.62;100.00
47985;BME280;33753;52.912;-7.342;2023-06-14T03:34:26;100315.91;;;12.61;100.00
47985;BME280;33753;52.912;-7.342;2023-06-14T03:36:56;100318.03;;;12.66;100.00
47985;BME280;33753;52.912;-7.342;2023-06-14T03:39:24;100315.13;;;12.67;100.00
47985;BME280;33753;52.912;-7.342;2023-06-14T03:41:53;100328.69;;;12.67;100.00
47985;BME280;33753;52.912;-7.342;2023-06-14T03:44:22;100321.41;;;12.68;100.00
47985;BME280;33753;52.912;-7.342;2023-06-14T03:46:51;100317.03;;;12.67;100.00
47985;BME280;33753;52.912;-7.342;2023-06-14T03:49:22;100314.31;;;12.67;100.00
47985;BME280;33753;52.912;-7.342;2023-06-14T03:51:51;100313.91;;;12.70;100.00
47985;BME280;33753;52.912;-7.342;2023-06-14T03:54:24;100324.59;;;12.71;100.00
47985;BME280;33753;52.912;-7.342;2023-06-14T03:56:56;100318.97;;;12.73;100.00
47985;BME280;33753;52.912;-7.342;2023-06-14T03:59:24;100315.88;;;12.76;100.00
47985;BME280;33753;52.912;-7.342;2023-06-14T04:01:54;100318.22;;;12.79;100.00
47985;BME280;33753;52.912;-7.342;2023-06-14T04:04:23;100324.59;;;12.86;100.00
47985;BME280;33753;52.912;-7.342;2023-06-14T04:06:56;100325.69;;;12.92;100.00
47985;BME280;33753;52.912;-7.342;2023-06-14T04:09:29;100321.72;;;12.94;100.00
47985;BME280;33753;52.912;-7.342;2023-06-14T04:11:57;100324.91;;;12.98;100.00
47985;BME280;33753;52.912;-7.342;2023-06-14T04:14:26;100323.03;;;12.99;100.00
47985;BME280;33753;52.912;-7.342;2023-06-14T04:16:56;100318.91;;;13.03;100.00
47985;BME280;33753;52.912;-7.342;2023-06-14T04:19:24;100327.25;;;13.01;100.00
47985;BME280;33753;52.912;-7.342;2023-06-14T04:21:53;100323.75;;;13.07;100.00
47985;BME280;33753;52.912;-7.342;2023-06-14T04:24:21;100321.31;;;13.12;100.00
47985;BME280;33753;52.912;-7.342;2023-06-14T04:26:51;100325.16;;;13.18;100.00
47985;BME280;33753;52.912;-7.342;2023-06-14T04:29:21;100330.19;;;13.21;100.00
47985;BME280;33753;52.912;-7.342;2023-06-14T04:31:57;100326.25;;;13.24;100.00
47985;BME280;33753;52.912;-7.342;2023-06-14T04:34:28;100333.38;;;13.25;100.00
47985;BME280;33753;52.912;-7.342;2023-06-14T04:36:59;100330.91;;;13.30;100.00
47985;BME280;33753;52.912;-7.342;2023-06-14T04:39:35;100335.03;;;13.41;100.00
47985;BME280;33753;52.912;-7.342;2023-06-14T04:42:06;100346.63;;;13.50;100.00
47985;BME280;33753;52.912;-7.342;2023-06-14T04:44:35;100348.00;;;13.60;100.00
47985;BME280;33753;52.912;-7.342;2023-06-14T04:47:07;100350.56;;;13.69;100.00
47985;BME280;33753;52.912;-7.342;2023-06-14T04:49:35;100344.56;;;13.73;100.00
47985;BME280;33753;52.912;-7.342;2023-06-14T04:52:04;100350.69;;;13.82;100.00
47985;BME280;33753;52.912;-7.342;2023-06-14T04:54:36;100356.56;;;13.86;100.00
47985;BME280;33753;52.912;-7.342;2023-06-14T04:57:09;100355.41;;;13.95;100.00
47985;BME280;33753;52.912;-7.342;2023-06-14T04:59:42;100360.53;;;14.11;100.00
47985;BME280;33753;52.912;-7.342;2023-06-14T05:02:11;100361.09;;;14.28;100.00
47985;BME280;33753;52.912;-7.342;2023-06-14T05:04:40;100370.41;;;14.41;100.00
47985;BME280;33753;52.912;-7.342;2023-06-14T05:07:09;100356.72;;;14.62;100.00
47985;BME280;33753;52.912;-7.342;2023-06-14T05:09:38;100359.34;;;14.84;100.00
47985;BME280;33753;52.912;-7.342;2023-06-14T05:12:06;100367.00;;;15.09;100.00
47985;BME280;33753;52.912;-7.342;2023-06-14T05:14:38;100374.41;;;15.28;100.00
47985;BME280;33753;52.912;-7.342;2023-06-14T05:17:06;100366.47;;;15.40;100.00
47985;BME280;33753;52.912;-7.342;2023-06-14T05:19:35;100369.00;;;15.48;100.00
47985;BME280;33753;52.912;-7.342;2023-06-14T05:22:03;100369.63;;;15.44;100.00
47985;BME280;33753;52.912;-7.342;2023-06-14T05:24:32;100369.66;;;15.50;100.00
47985;BME280;33753;52.912;-7.342;2023-06-14T05:27:00;100373.84;;;15.60;100.00
47985;BME280;33753;52.912;-7.342;2023-06-14T05:29:29;100374.91;;;15.65;100.00
47985;BME280;33753;52.912;-7.342;2023-06-14T05:31:58;100371.34;;;15.71;100.00
47985;BME280;33753;52.912;-7.342;2023-06-14T05:34:27;100378.06;;;15.76;100.00
47985;BME280;33753;52.912;-7.342;2023-06-14T05:36:56;100368.25;;;15.81;100.00
47985;BME280;33753;52.912;-7.342;2023-06-14T05:39:24;100367.63;;;15.86;100.00
47985;BME280;33753;52.912;-7.342;2023-06-14T05:41:53;100377.50;;;15.87;100.00
47985;BME280;33753;52.912;-7.342;2023-06-14T05:44:22;100378.13;;;15.96;100.00
47985;BME280;33753;52.912;-7.342;2023-06-14T05:46:50;100371.00;;;16.01;100.00
47985;BME280;33753;52.912;-7.342;2023-06-14T05:49:20;100359.66;;;16.11;100.00
47985;BME280;33753;52.912;-7.342;2023-06-14T05:51:49;100378.75;;;16.18;100.00
47985;BME280;33753;52.912;-7.342;2023-06-14T05:54:18;100380.03;;;16.22;100.00
47985;BME280;33753;52.912;-7.342;2023-06-14T05:56:46;100376.00;;;16.24;100.00
47985;BME280;33753;52.912;-7.342;2023-06-14T05:59:14;100378.13;;;16.29;100.00
47985;BME280;33753;52.912;-7.342;2023-06-14T06:01:43;100381.91;;;16.35;100.00
47985;BME280;33753;52.912;-7.342;2023-06-14T06:04:12;100375.59;;;16.48;100.00
47985;BME280;33753;52.912;-7.342;2023-06-14T06:06:41;100375.97;;;16.65;100.00
47985;BME280;33753;52.912;-7.342;2023-06-14T06:09:10;100374.91;;;16.72;100.00
47985;BME280;33753;52.912;-7.342;2023-06-14T06:11:39;100380.97;;;16.81;100.00
47985;BME280;33753;52.912;-7.342;2023-06-14T06:14:19;100384.75;;;16.93;100.00
47985;BME280;33753;52.912;-7.342;2023-06-14T06:16:48;100373.97;;;17.05;100.00
47985;BME280;33753;52.912;-7.342;2023-06-14T06:19:16;100380.25;;;17.13;100.00
47985;BME280;33753;52.912;-7.342;2023-06-14T06:21:47;100379.56;;;17.24;100.00
47985;BME280;33753;52.912;-7.342;2023-06-14T06:24:15;100387.91;;;17.36;100.00
47985;BME280;33753;52.912;-7.342;2023-06-14T06:26:44;100393.56;;;17.48;100.00
47985;BME280;33753;52.912;-7.342;2023-06-14T06:29:12;100391.16;;;17.58;100.00
47985;BME280;33753;52.912;-7.342;2023-06-14T06:31:41;100396.75;;;17.76;100.00
47985;BME280;33753;52.912;-7.342;2023-06-14T06:34:09;100403.97;;;17.96;100.00
47985;BME280;33753;52.912;-7.342;2023-06-14T06:36:38;100403.00;;;18.16;100.00
47985;BME280;33753;52.912;-7.342;2023-06-14T06:39:08;100403.53;;;18.50;100.00
47985;BME280;33753;52.912;-7.342;2023-06-14T06:41:37;100409.09;;;18.87;100.00
47985;BME280;33753;52.912;-7.342;2023-06-14T06:44:06;100406.94;;;19.26;100.00
47985;BME280;33753;52.912;-7.342;2023-06-14T06:46:35;100406.44;;;19.47;100.00
47985;BME280;33753;52.912;-7.342;2023-06-14T06:49:07;100408.53;;;19.64;100.00
47985;BME280;33753;52.912;-7.342;2023-06-14T06:51:35;100405.00;;;19.75;100.00
47985;BME280;33753;52.912;-7.342;2023-06-14T06:54:04;100408.44;;;19.89;100.00
47985;BME280;33753;52.912;-7.342;2023-06-14T06:56:36;100409.66;;;20.05;100.00
47985;BME280;33753;52.912;-7.342;2023-06-14T06:59:05;100401.53;;;20.10;100.00
47985;BME280;33753;52.912;-7.342;2023-06-14T07:01:33;100406.19;;;20.22;100.00
47985;BME280;33753;52.912;-7.342;2023-06-14T07:04:03;100395.34;;;20.27;100.00
47985;BME280;33753;52.912;-7.342;2023-06-14T07:06:32;100397.28;;;20.38;100.00
47985;BME280;33753;52.912;-7.342;2023-06-14T07:09:01;100409.69;;;20.52;100.00
47985;BME280;33753;52.912;-7.342;2023-06-14T07:11:31;100403.22;;;20.59;100.00
47985;BME280;33753;52.912;-7.342;2023-06-14T07:14:01;100405.16;;;20.70;100.00
47985;BME280;33753;52.912;-7.342;2023-06-14T07:16:30;100402.88;;;20.79;100.00
47985;BME280;33753;52.912;-7.342;2023-06-14T07:18:59;100397.97;;;20.93;100.00
47985;BME280;33753;52.912;-7.342;2023-06-14T07:21:28;100401.19;;;21.01;100.00
47985;BME280;33753;52.912;-7.342;2023-06-14T07:23:57;100403.31;;;21.11;100.00
47985;BME280;33753;52.912;-7.342;2023-06-14T07:26:25;100405.09;;;21.17;100.00
47985;BME280;33753;52.912;-7.342;2023-06-14T07:28:53;100410.09;;;21.20;100.00
47985;BME280;33753;52.912;-7.342;2023-06-14T07:31:24;100412.97;;;21.26;100.00
47985;BME280;33753;52.912;-7.342;2023-06-14T07:33:53;100403.13;;;21.30;100.00
47985;BME280;33753;52.912;-7.342;2023-06-14T07:36:22;100411.66;;;21.28;100.00
47985;BME280;33753;52.912;-7.342;2023-06-14T07:38:50;100409.38;;;21.25;100.00
47985;BME280;33753;52.912;-7.342;2023-06-14T07:41:19;100405.28;;;21.28;100.00
47985;BME280;33753;52.912;-7.342;2023-06-14T07:43:48;100407.25;;;21.15;100.00
47985;BME280;33753;52.912;-7.342;2023-06-14T07:46:17;100410.09;;;21.20;100.00
47985;BME280;33753;52.912;-7.342;2023-06-14T07:48:47;100413.31;;;21.29;100.00
47985;BME280;33753;52.912;-7.342;2023-06-14T07:51:15;100411.09;;;21.43;100.00
47985;BME280;33753;52.912;-7.342;2023-06-14T07:53:47;100416.25;;;21.51;100.00
47985;BME280;33753;52.912;-7.342;2023-06-14T07:56:16;100404.94;;;21.65;100.00
47985;BME280;33753;52.912;-7.342;2023-06-14T07:58:45;100410.97;;;21.79;100.00
47985;BME280;33753;52.912;-7.342;2023-06-14T08:01:14;100408.59;;;21.82;100.00
47985;BME280;33753;52.912;-7.342;2023-06-14T08:03:44;100408.00;;;22.14;100.00
47985;BME280;33753;52.912;-7.342;2023-06-14T08:06:14;100409.53;;;22.39;100.00
47985;BME280;33753;52.912;-7.342;2023-06-14T08:08:44;100406.75;;;22.73;100.00
47985;BME280;33753;52.912;-7.342;2023-06-14T08:11:17;100409.66;;;23.05;100.00
47985;BME280;33753;52.912;-7.342;2023-06-14T08:13:46;100414.19;;;23.34;100.00
47985;BME280;33753;52.912;-7.342;2023-06-14T08:16:14;100419.94;;;23.54;100.00
47985;BME280;33753;52.912;-7.342;2023-06-14T08:18:45;100419.53;;;23.95;100.00
47985;BME280;33753;52.912;-7.342;2023-06-14T08:21:15;100418.66;;;24.54;100.00
47985;BME280;33753;52.912;-7.342;2023-06-14T08:23:44;100410.91;;;24.99;100.00
47985;BME280;33753;52.912;-7.342;2023-06-14T08:26:13;100415.84;;;25.40;100.00
47985;BME280;33753;52.912;-7.342;2023-06-14T08:28:42;100408.97;;;25.63;100.00
47985;BME280;33753;52.912;-7.342;2023-06-14T08:31:11;100411.97;;;25.46;100.00
47985;BME280;33753;52.912;-7.342;2023-06-14T08:33:40;100415.84;;;25.50;100.00
47985;BME280;33753;52.912;-7.342;2023-06-14T08:36:10;100412.81;;;25.51;100.00
47985;BME280;33753;52.912;-7.342;2023-06-14T08:38:41;100424.19;;;25.55;100.00
47985;BME280;33753;52.912;-7.342;2023-06-14T08:41:10;100419.84;;;26.00;100.00
47985;BME280;33753;52.912;-7.342;2023-06-14T08:43:40;100422.88;;;26.61;100.00
47985;BME280;33753;52.912;-7.342;2023-06-14T08:46:08;100416.38;;;27.12;100.00
47985;BME280;33753;52.912;-7.342;2023-06-14T08:48:39;100431.50;;;27.50;100.00
47985;BME280;33753;52.912;-7.342;2023-06-14T08:51:08;100428.91;;;27.69;100.00
47985;BME280;33753;52.912;-7.342;2023-06-14T08:53:41;100429.47;;;27.71;100.00
47985;BME280;33753;52.912;-7.342;2023-06-14T08:56:11;100427.09;;;27.89;100.00
47985;BME280;33753;52.912;-7.342;2023-06-14T08:58:42;100426.75;;;27.56;100.00
47985;BME280;33753;52.912;-7.342;2023-06-14T09:01:12;100430.72;;;27.45;100.00
47985;BME280;33753;52.912;-7.342;2023-06-14T09:03:43;100433.25;;;27.41;100.00
47985;BME280;33753;52.912;-7.342;2023-06-14T09:06:12;100434.06;;;27.47;100.00
47985;BME280;33753;52.912;-7.342;2023-06-14T09:08:44;100427.03;;;28.04;100.00
47985;BME280;33753;52.912;-7.342;2023-06-14T09:11:13;100433.41;;;28.74;100.00
47985;BME280;33753;52.912;-7.342;2023-06-14T09:13:42;100427.44;;;29.53;100.00
47985;BME280;33753;52.912;-7.342;2023-06-14T09:16:11;100431.19;;;29.87;100.00
47985;BME280;33753;52.912;-7.342;2023-06-14T09:18:40;100425.75;;;29.95;100.00
47985;BME280;33753;52.912;-7.342;2023-06-14T09:21:14;100432.72;;;30.64;100.00
47985;BME280;33753;52.912;-7.342;2023-06-14T09:23:45;100427.66;;;30.94;100.00
47985;BME280;33753;52.912;-7.342;2023-06-14T09:26:15;100432.34;;;30.98;100.00
47985;BME280;33753;52.912;-7.342;2023-06-14T09:28:44;100424.44;;;30.87;100.00
47985;BME280;33753;52.912;-7.342;2023-06-14T09:31:13;100426.06;;;30.46;100.00
47985;BME280;33753;52.912;-7.342;2023-06-14T09:33:42;100431.63;;;29.94;100.00
47985;BME280;33753;52.912;-7.342;2023-06-14T09:36:15;100436.25;;;29.60;100.00
47985;BME280;33753;52.912;-7.342;2023-06-14T09:38:52;100430.78;;;29.93;100.00
47985;BME280;33753;52.912;-7.342;2023-06-14T09:41:27;100434.09;;;30.14;100.00
47985;BME280;33753;52.912;-7.342;2023-06-14T09:43:59;100428.00;;;30.12;100.00
47985;BME280;33753;52.912;-7.342;2023-06-14T09:46:35;100435.31;;;29.89;100.00
47985;BME280;33753;52.912;-7.342;2023-06-14T09:49:04;100437.34;;;29.84;100.00
47985;BME280;33753;52.912;-7.342;2023-06-14T09:51:37;100437.31;;;29.45;100.00
47985;BME280;33753;52.912;-7.342;2023-06-14T09:54:12;100444.53;;;29.22;100.00
47985;BME280;33753;52.912;-7.342;2023-06-14T09:56:44;100439.56;;;29.19;100.00
47985;BME280;33753;52.912;-7.342;2023-06-14T09:59:13;100439.84;;;29.23;100.00
47985;BME280;33753;52.912;-7.342;2023-06-14T10:01:44;100430.06;;;29.44;100.00
47985;BME280;33753;52.912;-7.342;2023-06-14T10:04:13;100436.06;;;29.08;100.00
47985;BME280;33753;52.912;-7.342;2023-06-14T10:06:45;100441.69;;;29.03;100.00
47985;BME280;33753;52.912;-7.342;2023-06-14T10:09:15;100437.50;;;28.82;100.00
47985;BME280;33753;52.912;-7.342;2023-06-14T10:11:43;100438.50;;;28.91;100.00
47985;BME280;33753;52.912;-7.342;2023-06-14T10:14:12;100438.03;;;29.32;100.00
47985;BME280;33753;52.912;-7.342;2023-06-14T10:16:44;100433.13;;;29.67;100.00
47985;BME280;33753;52.912;-7.342;2023-06-14T10:19:16;100427.59;;;30.19;100.00
47985;BME280;33753;52.912;-7.342;2023-06-14T10:21:46;100437.44;;;30.30;100.00
47985;BME280;33753;52.912;-7.342;2023-06-14T10:24:23;100418.81;;;29.93;100.00
47985;BME280;33753;52.912;-7.342;2023-06-14T10:26:57;100433.41;;;30.23;100.00
47985;BME280;33753;52.912;-7.342;2023-06-14T10:29:26;100426.50;;;30.34;100.00
47985;BME280;33753;52.912;-7.342;2023-06-14T10:31:59;100428.16;;;30.35;100.00
47985;BME280;33753;52.912;-7.342;2023-06-14T10:34:30;100422.34;;;30.50;100.00
47985;BME280;33753;52.912;-7.342;2023-06-14T10:37:00;100434.72;;;30.44;99.70
47985;BME280;33753;52.912;-7.342;2023-06-14T10:39:31;100428.13;;;30.02;99.54
47985;BME280;33753;52.912;-7.342;2023-06-14T10:42:01;100421.47;;;29.84;100.00
47985;BME280;33753;52.912;-7.342;2023-06-14T10:44:42;100435.63;;;30.07;99.87
47985;BME280;33753;52.912;-7.342;2023-06-14T10:47:19;100427.63;;;30.00;100.00
47985;BME280;33753;52.912;-7.342;2023-06-14T10:49:50;100426.84;;;29.56;100.00
47985;BME280;33753;52.912;-7.342;2023-06-14T10:52:23;100431.47;;;29.23;100.00
47985;BME280;33753;52.912;-7.342;2023-06-14T10:55:07;100428.41;;;28.95;99.61
47985;BME280;33753;52.912;-7.342;2023-06-14T10:57:39;100429.09;;;28.52;100.00
47985;BME280;33753;52.912;-7.342;2023-06-14T11:00:10;100430.28;;;28.17;100.00
47985;BME280;33753;52.912;-7.342;2023-06-14T11:02:49;100435.94;;;27.96;100.00
47985;BME280;33753;52.912;-7.342;2023-06-14T11:05:23;100429.97;;;27.79;100.00
47985;BME280;33753;52.912;-7.342;2023-06-14T11:07:55;100435.44;;;27.44;100.00
47985;BME280;33753;52.912;-7.342;2023-06-14T11:10:32;100427.78;;;27.70;100.00
47985;BME280;33753;52.912;-7.342;2023-06-14T11:13:04;100420.47;;;28.24;100.00
47985;BME280;33753;52.912;-7.342;2023-06-14T11:15:33;100422.38;;;28.29;100.00
47985;BME280;33753;52.912;-7.342;2023-06-14T11:18:02;100419.34;;;28.55;100.00
47985;BME280;33753;52.912;-7.342;2023-06-14T11:20:32;100427.50;;;28.46;100.00
47985;BME280;33753;52.912;-7.342;2023-06-14T11:23:01;100428.91;;;28.14;100.00
47985;BME280;33753;52.912;-7.342;2023-06-14T11:25:31;100423.66;;;28.42;100.00
47985;BME280;33753;52.912;-7.342;2023-06-14T11:27:59;100426.28;;;28.63;100.00
47985;BME280;33753;52.912;-7.342;2023-06-14T11:30:28;100428.06;;;28.77;100.00
47985;BME280;33753;52.912;-7.342;2023-06-14T11:32:57;100423.78;;;29.09;100.00
47985;BME280;33753;52.912;-7.342;2023-06-14T11:35:25;100431.19;;;28.95;100.00
47985;BME280;33753;52.912;-7.342;2023-06-14T11:37:54;100433.03;;;28.81;100.00
47985;BME280;33753;52.912;-7.342;2023-06-14T11:40:23;100423.28;;;28.54;100.00
47985;BME280;33753;52.912;-7.342;2023-06-14T11:42:59;100424.75;;;28.75;100.00
47985;BME280;33753;52.912;-7.342;2023-06-14T11:45:28;100417.53;;;29.23;100.00
47985;BME280;33753;52.912;-7.342;2023-06-14T11:47:57;100415.84;;;29.22;100.00
47985;BME280;33753;52.912;-7.342;2023-06-14T11:50:27;100419.28;;;29.13;100.00
47985;BME280;33753;52.912;-7.342;2023-06-14T11:52:56;100419.59;;;28.58;100.00
47985;BME280;33753;52.912;-7.342;2023-06-14T11:55:26;100413.50;;;28.56;100.00
47985;BME280;33753;52.912;-7.342;2023-06-14T11:57:55;100418.00;;;29.06;100.00
47985;BME280;33753;52.912;-7.342;2023-06-14T12:00:28;100411.22;;;29.12;99.78
47985;BME280;33753;52.912;-7.342;2023-06-14T12:02:57;100417.22;;;29.00;100.00
47985;BME280;33753;52.912;-7.342;2023-06-14T12:05:26;100413.81;;;29.33;100.00
47985;BME280;33753;52.912;-7.342;2023-06-14T12:07:59;100400.47;;;29.48;99.74
47985;BME280;33753;52.912;-7.342;2023-06-14T12:10:28;100410.50;;;29.50;98.45
47985;BME280;33753;52.912;-7.342;2023-06-14T12:12:56;100404.28;;;29.34;97.05
47985;BME280;33753;52.912;-7.342;2023-06-14T12:15:29;100401.97;;;29.41;97.97
47985;BME280;33753;52.912;-7.342;2023-06-14T12:17:57;100403.28;;;29.48;99.74
47985;BME280;33753;52.912;-7.342;2023-06-14T12:20:29;100407.78;;;29.82;97.77
47985;BME280;33753;52.912;-7.342;2023-06-14T12:22:59;100392.84;;;30.11;97.38
47985;BME280;33753;52.912;-7.342;2023-06-14T12:25:29;100386.22;;;30.40;95.70
47985;BME280;33753;52.912;-7.342;2023-06-14T12:28:03;100384.84;;;30.57;94.80
47985;BME280;33753;52.912;-7.342;2023-06-14T12:30:35;100384.50;;;30.44;95.40
47985;BME280;33753;52.912;-7.342;2023-06-14T12:33:11;100390.31;;;30.62;96.22
47985;BME280;33753;52.912;-7.342;2023-06-14T12:35:54;100400.16;;;30.40;93.78
47985;BME280;33753;52.912;-7.342;2023-06-14T12:39:13;100397.88;;;30.28;93.77
47985;BME280;33753;52.912;-7.342;2023-06-14T12:41:59;100392.25;;;30.14;94.34
47985;BME280;33753;52.912;-7.342;2023-06-14T12:44:32;100398.81;;;30.05;93.92
47985;BME280;33753;52.912;-7.342;2023-06-14T12:47:04;100391.56;;;30.04;93.21